sensor_id;sensor_type;location;lat;lon;timestamp;P1;durP1;ratioP1;P2;durP2;ratioP2
78453;SDS011;67750;55.832;49.124;2024-03-08T00:00:42;4.50;;;2.33;;
78453;SDS011;67750;55.832;49.124;2024-03-08T00:03:11;3.83;;;1.77;;
78453;SDS011;67750;55.832;49.124;2024-03-08T00:05:41;4.22;;;1.60;;
78453;SDS011;67750;55.832;49.124;2024-03-08T00:08:11;4.30;;;2.15;;
78453;SDS011;67750;55.832;49.124;2024-03-08T00:10:40;3.95;;;1.92;;
78453;SDS011;67750;55.832;49.124;2024-03-08T00:13:10;2.60;;;1.55;;
78453;SDS011;67750;55.832;49.124;2024-03-08T00:15:39;2.50;;;1.60;;
78453;SDS011;67750;55.832;49.124;2024-03-08T00:18:08;4.95;;;1.75;;
78453;SDS011;67750;55.832;49.124;2024-03-08T00:20:38;5.35;;;2.05;;
78453;SDS011;67750;55.832;49.124;2024-03-08T00:23:08;4.05;;;1.98;;
78453;SDS011;67750;55.832;49.124;2024-03-08T00:25:38;4.33;;;1.70;;
78453;SDS011;67750;55.832;49.124;2024-03-08T00:28:07;3.75;;;1.85;;
78453;SDS011;67750;55.832;49.124;2024-03-08T00:30:38;4.47;;;2.00;;
78453;SDS011;67750;55.832;49.124;2024-03-08T00:33:09;3.90;;;1.92;;
78453;SDS011;67750;55.832;49.124;2024-03-08T00:35:39;4.87;;;2.00;;
78453;SDS011;67750;55.832;49.124;2024-03-08T00:38:08;3.83;;;1.50;;
78453;SDS011;67750;55.832;49.124;2024-03-08T00:40:38;3.67;;;1.60;;
78453;SDS011;67750;55.832;49.124;2024-03-08T00:43:07;4.05;;;1.70;;
78453;SDS011;67750;55.832;49.124;2024-03-08T00:45:37;5.20;;;1.98;;
78453;SDS011;67750;55.832;49.124;2024-03-08T00:48:08;5.58;;;2.08;;
78453;SDS011;67750;55.832;49.124;2024-03-08T00:50:38;5.22;;;2.12;;
78453;SDS011;67750;55.832;49.124;2024-03-08T00:53:08;4.75;;;2.17;;
78453;SDS011;67750;55.832;49.124;2024-03-08T00:55:38;6.67;;;2.05;;
78453;SDS011;67750;55.832;49.124;2024-03-08T00:58:08;3.83;;;1.72;;
78453;SDS011;67750;55.832;49.124;2024-03-08T01:00:37;4.78;;;1.55;;
78453;SDS011;67750;55.832;49.124;2024-03-08T01:03:07;3.20;;;1.40;;
78453;SDS011;67750;55.832;49.124;2024-03-08T01:05:37;6.60;;;1.80;;
78453;SDS011;67750;55.832;49.124;2024-03-08T01:08:07;4.33;;;1.57;;
78453;SDS011;67750;55.832;49.124;2024-03-08T01:10:38;4.15;;;1.57;;
78453;SDS011;67750;55.832;49.124;2024-03-08T01:13:07;3.37;;;1.62;;
78453;SDS011;67750;55.832;49.124;2024-03-08T01:15:37;3.70;;;1.70;;
78453;SDS011;67750;55.832;49.124;2024-03-08T01:18:08;4.28;;;1.65;;
78453;SDS011;67750;55.832;49.124;2024-03-08T01:20:37;5.00;;;1.60;;
78453;SDS011;67750;55.832;49.124;2024-03-08T01:23:08;4.33;;;1.85;;
78453;SDS011;67750;55.832;49.124;2024-03-08T01:25:38;3.22;;;1.37;;
78453;SDS011;67750;55.832;49.124;2024-03-08T01:28:08;3.85;;;1.75;;
78453;SDS011;67750;55.832;49.124;2024-03-08T01:30:40;2.80;;;1.52;;
78453;SDS011;67750;55.832;49.124;2024-03-08T01:33:10;2.98;;;1.40;;
78453;SDS011;67750;55.832;49.124;2024-03-08T01:35:39;3.22;;;1.60;;
78453;SDS011;67750;55.832;49.124;2024-03-08T01:38:09;4.70;;;1.67;;
78453;SDS011;67750;55.832;49.124;2024-03-08T01:40:39;4.65;;;1.70;;
78453;SDS011;67750;55.832;49.124;2024-03-08T01:45:58;2.90;;;1.52;;
78453;SDS011;67750;55.832;49.124;2024-03-08T01:48:28;3.75;;;1.60;;
78453;SDS011;67750;55.832;49.124;2024-03-08T01:50:58;4.25;;;1.75;;
78453;SDS011;67750;55.832;49.124;2024-03-08T01:53:28;4.35;;;1.82;;
78453;SDS011;67750;55.832;49.124;2024-03-08T01:55:58;3.80;;;1.70;;
78453;SDS011;67750;55.832;49.124;2024-03-08T01:58:29;4.15;;;1.52;;
78453;SDS011;67750;55.832;49.124;2024-03-08T02:01:00;3.20;;;1.67;;
78453;SDS011;67750;55.832;49.124;2024-03-08T02:03:31;4.67;;;1.92;;
78453;SDS011;67750;55.832;49.124;2024-03-08T02:06:00;5.08;;;2.00;;
78453;SDS011;67750;55.832;49.124;2024-03-08T02:08:31;2.87;;;1.50;;
78453;SDS011;67750;55.832;49.124;2024-03-08T02:11:01;3.37;;;1.75;;
78453;SDS011;67750;55.832;49.124;2024-03-08T02:13:31;3.35;;;1.90;;
78453;SDS011;67750;55.832;49.124;2024-03-08T02:16:01;5.25;;;2.02;;
78453;SDS011;67750;55.832;49.124;2024-03-08T02:18:31;3.60;;;1.75;;
78453;SDS011;67750;55.832;49.124;2024-03-08T02:21:02;4.75;;;1.90;;
78453;SDS011;67750;55.832;49.124;2024-03-08T02:23:32;5.72;;;2.20;;
78453;SDS011;67750;55.832;49.124;2024-03-08T02:26:02;3.10;;;1.60;;
78453;SDS011;67750;55.832;49.124;2024-03-08T02:28:31;5.72;;;1.87;;
78453;SDS011;67750;55.832;49.124;2024-03-08T02:31:02;4.12;;;1.85;;
78453;SDS011;67750;55.832;49.124;2024-03-08T02:33:33;4.17;;;1.55;;
78453;SDS011;67750;55.832;49.124;2024-03-08T02:36:03;3.40;;;1.70;;
78453;SDS011;67750;55.832;49.124;2024-03-08T02:38:33;3.95;;;1.62;;
78453;SDS011;67750;55.832;49.124;2024-03-08T02:41:03;2.95;;;1.60;;
78453;SDS011;67750;55.832;49.124;2024-03-08T02:43:33;3.95;;;1.80;;
78453;SDS011;67750;55.832;49.124;2024-03-08T02:46:02;3.05;;;1.60;;
78453;SDS011;67750;55.832;49.124;2024-03-08T02:48:32;4.45;;;1.67;;
78453;SDS011;67750;55.832;49.124;2024-03-08T02:51:02;3.45;;;1.50;;
78453;SDS011;67750;55.832;49.124;2024-03-08T02:53:32;4.50;;;1.85;;
78453;SDS011;67750;55.832;49.124;2024-03-08T02:56:02;5.25;;;1.60;;
78453;SDS011;67750;55.832;49.124;2024-03-08T02:58:33;3.08;;;1.67;;
78453;SDS011;67750;55.832;49.124;2024-03-08T03:01:03;4.58;;;2.20;;
78453;SDS011;67750;55.832;49.124;2024-03-08T03:03:33;8.20;;;1.92;;
78453;SDS011;67750;55.832;49.124;2024-03-08T03:06:02;5.95;;;1.72;;
78453;SDS011;67750;55.832;49.124;2024-03-08T03:08:34;3.52;;;1.60;;
78453;SDS011;67750;55.832;49.124;2024-03-08T03:11:03;5.47;;;2.20;;
78453;SDS011;67750;55.832;49.124;2024-03-08T03:13:34;3.52;;;1.65;;
78453;SDS011;67750;55.832;49.124;2024-03-08T03:16:04;4.17;;;1.75;;
78453;SDS011;67750;55.832;49.124;2024-03-08T03:18:34;5.28;;;2.10;;
78453;SDS011;67750;55.832;49.124;2024-03-08T03:21:04;3.00;;;1.62;;
78453;SDS011;67750;55.832;49.124;2024-03-08T03:23:34;3.95;;;2.00;;
78453;SDS011;67750;55.832;49.124;2024-03-08T03:26:04;4.15;;;1.60;;
78453;SDS011;67750;55.832;49.124;2024-03-08T03:28:53;5.03;;;1.87;;
78453;SDS011;67750;55.832;49.124;2024-03-08T03:31:24;6.12;;;2.40;;
78453;SDS011;67750;55.832;49.124;2024-03-08T03:33:53;6.17;;;2.20;;
78453;SDS011;67750;55.832;49.124;2024-03-08T03:36:24;5.42;;;2.10;;
78453;SDS011;67750;55.832;49.124;2024-03-08T03:38:55;4.97;;;2.00;;
78453;SDS011;67750;55.832;49.124;2024-03-08T03:41:26;9.75;;;2.10;;
78453;SDS011;67750;55.832;49.124;2024-03-08T03:43:55;3.98;;;1.85;;
78453;SDS011;67750;55.832;49.124;2024-03-08T03:46:26;3.67;;;1.75;;
78453;SDS011;67750;55.832;49.124;2024-03-08T03:48:55;4.85;;;2.20;;
78453;SDS011;67750;55.832;49.124;2024-03-08T03:51:25;11.65;;;2.75;;
78453;SDS011;67750;55.832;49.124;2024-03-08T03:53:56;4.60;;;2.15;;
78453;SDS011;67750;55.832;49.124;2024-03-08T03:56:25;5.53;;;2.35;;
78453;SDS011;67750;55.832;49.124;2024-03-08T03:58:55;6.67;;;2.20;;
78453;SDS011;67750;55.832;49.124;2024-03-08T04:01:25;3.65;;;1.92;;
78453;SDS011;67750;55.832;49.124;2024-03-08T04:03:54;6.67;;;1.60;;
78453;SDS011;67750;55.832;49.124;2024-03-08T04:06:24;4.03;;;2.00;;
78453;SDS011;67750;55.832;49.124;2024-03-08T04:08:53;3.15;;;1.62;;
78453;SDS011;67750;55.832;49.124;2024-03-08T04:11:23;4.67;;;2.00;;
78453;SDS011;67750;55.832;49.124;2024-03-08T04:13:52;9.20;;;2.22;;
78453;SDS011;67750;55.832;49.124;2024-03-08T04:16:22;4.70;;;1.90;;
78453;SDS011;67750;55.832;49.124;2024-03-08T04:18:52;9.18;;;2.47;;
78453;SDS011;67750;55.832;49.124;2024-03-08T04:21:22;4.80;;;1.92;;
78453;SDS011;67750;55.832;49.124;2024-03-08T04:23:51;7.70;;;1.90;;
78453;SDS011;67750;55.832;49.124;2024-03-08T04:26:22;9.33;;;2.25;;
78453;SDS011;67750;55.832;49.124;2024-03-08T04:28:53;7.72;;;2.12;;
78453;SDS011;67750;55.832;49.124;2024-03-08T04:31:22;5.15;;;2.17;;
78453;SDS011;67750;55.832;49.124;2024-03-08T04:33:53;5.20;;;2.33;;
78453;SDS011;67750;55.832;49.124;2024-03-08T04:36:23;3.62;;;1.90;;
78453;SDS011;67750;55.832;49.124;2024-03-08T04:38:52;6.75;;;2.42;;
78453;SDS011;67750;55.832;49.124;2024-03-08T04:41:22;4.85;;;2.22;;
78453;SDS011;67750;55.832;49.124;2024-03-08T04:43:51;6.20;;;2.52;;
78453;SDS011;67750;55.832;49.124;2024-03-08T04:46:23;5.12;;;1.95;;
78453;SDS011;67750;55.832;49.124;2024-03-08T04:48:53;6.62;;;2.20;;
78453;SDS011;67750;55.832;49.124;2024-03-08T04:51:22;5.35;;;2.52;;
78453;SDS011;67750;55.832;49.124;2024-03-08T04:53:52;5.55;;;2.10;;
78453;SDS011;67750;55.832;49.124;2024-03-08T04:56:21;5.87;;;2.55;;
78453;SDS011;67750;55.832;49.124;2024-03-08T04:58:51;6.47;;;2.17;;
78453;SDS011;67750;55.832;49.124;2024-03-08T05:01:20;3.62;;;1.72;;
78453;SDS011;67750;55.832;49.124;2024-03-08T05:03:50;4.75;;;2.60;;
78453;SDS011;67750;55.832;49.124;2024-03-08T05:06:21;5.50;;;2.22;;
78453;SDS011;67750;55.832;49.124;2024-03-08T05:08:51;4.50;;;2.37;;
78453;SDS011;67750;55.832;49.124;2024-03-08T05:11:20;6.85;;;2.37;;
78453;SDS011;67750;55.832;49.124;2024-03-08T05:13:50;6.25;;;2.15;;
78453;SDS011;67750;55.832;49.124;2024-03-08T05:16:20;6.00;;;2.40;;
78453;SDS011;67750;55.832;49.124;2024-03-08T05:18:50;5.75;;;2.22;;
78453;SDS011;67750;55.832;49.124;2024-03-08T05:21:19;7.40;;;2.20;;
78453;SDS011;67750;55.832;49.124;2024-03-08T05:23:50;8.58;;;2.60;;
78453;SDS011;67750;55.832;49.124;2024-03-08T05:26:20;6.30;;;2.85;;
78453;SDS011;67750;55.832;49.124;2024-03-08T05:28:51;7.75;;;2.75;;
78453;SDS011;67750;55.832;49.124;2024-03-08T05:31:21;6.12;;;2.50;;
78453;SDS011;67750;55.832;49.124;2024-03-08T05:33:51;8.50;;;3.40;;
78453;SDS011;67750;55.832;49.124;2024-03-08T05:36:22;7.67;;;3.40;;
78453;SDS011;67750;55.832;49.124;2024-03-08T05:38:52;9.70;;;3.35;;
78453;SDS011;67750;55.832;49.124;2024-03-08T05:41:22;14.30;;;3.90;;
78453;SDS011;67750;55.832;49.124;2024-03-08T05:43:52;9.18;;;3.42;;
78453;SDS011;67750;55.832;49.124;2024-03-08T05:46:22;9.33;;;3.50;;
78453;SDS011;67750;55.832;49.124;2024-03-08T05:48:51;9.08;;;3.40;;
78453;SDS011;67750;55.832;49.124;2024-03-08T05:51:23;7.67;;;3.00;;
78453;SDS011;67750;55.832;49.124;2024-03-08T05:54:12;6.17;;;3.20;;
78453;SDS011;67750;55.832;49.124;2024-03-08T05:56:42;7.55;;;3.12;;
78453;SDS011;67750;55.832;49.124;2024-03-08T05:59:12;6.78;;;3.15;;
78453;SDS011;67750;55.832;49.124;2024-03-08T06:01:41;8.15;;;3.20;;
78453;SDS011;67750;55.832;49.124;2024-03-08T06:04:13;6.42;;;3.62;;
78453;SDS011;67750;55.832;49.124;2024-03-08T06:06:44;7.40;;;2.98;;
78453;SDS011;67750;55.832;49.124;2024-03-08T06:09:13;8.23;;;3.20;;
78453;SDS011;67750;55.832;49.124;2024-03-08T06:11:44;6.55;;;3.33;;
78453;SDS011;67750;55.832;49.124;2024-03-08T06:14:14;10.20;;;3.17;;
78453;SDS011;67750;55.832;49.124;2024-03-08T06:16:46;7.62;;;3.45;;
78453;SDS011;67750;55.832;49.124;2024-03-08T06:19:17;6.87;;;3.42;;
78453;SDS011;67750;55.832;49.124;2024-03-08T06:21:46;8.30;;;3.70;;
78453;SDS011;67750;55.832;49.124;2024-03-08T06:24:16;8.35;;;3.67;;
78453;SDS011;67750;55.832;49.124;2024-03-08T06:26:46;8.48;;;4.00;;
78453;SDS011;67750;55.832;49.124;2024-03-08T06:32:06;6.70;;;3.08;;
78453;SDS011;67750;55.832;49.124;2024-03-08T06:34:36;8.73;;;3.65;;
78453;SDS011;67750;55.832;49.124;2024-03-08T06:37:05;7.83;;;3.55;;
78453;SDS011;67750;55.832;49.124;2024-03-08T06:39:35;8.78;;;3.37;;
78453;SDS011;67750;55.832;49.124;2024-03-08T06:42:04;6.83;;;3.30;;
78453;SDS011;67750;55.832;49.124;2024-03-08T06:44:35;8.43;;;3.05;;
78453;SDS011;67750;55.832;49.124;2024-03-08T06:47:06;8.03;;;3.20;;
78453;SDS011;67750;55.832;49.124;2024-03-08T06:49:36;10.60;;;4.03;;
78453;SDS011;67750;55.832;49.124;2024-03-08T06:52:06;7.03;;;3.22;;
78453;SDS011;67750;55.832;49.124;2024-03-08T06:54:36;8.25;;;3.72;;
78453;SDS011;67750;55.832;49.124;2024-03-08T06:57:06;5.70;;;3.12;;
78453;SDS011;67750;55.832;49.124;2024-03-08T06:59:37;6.55;;;3.05;;
78453;SDS011;67750;55.832;49.124;2024-03-08T07:04:38;7.15;;;3.65;;
78453;SDS011;67750;55.832;49.124;2024-03-08T07:07:07;8.68;;;3.72;;
78453;SDS011;67750;55.832;49.124;2024-03-08T07:09:37;8.50;;;4.03;;
78453;SDS011;67750;55.832;49.124;2024-03-08T07:12:07;9.63;;;3.65;;
78453;SDS011;67750;55.832;49.124;2024-03-08T07:14:36;7.03;;;3.50;;
78453;SDS011;67750;55.832;49.124;2024-03-08T07:17:26;8.18;;;3.15;;
78453;SDS011;67750;55.832;49.124;2024-03-08T07:19:55;7.65;;;3.50;;
78453;SDS011;67750;55.832;49.124;2024-03-08T07:22:26;6.30;;;3.70;;
78453;SDS011;67750;55.832;49.124;2024-03-08T07:24:56;8.20;;;3.98;;
78453;SDS011;67750;55.832;49.124;2024-03-08T07:27:27;6.60;;;3.20;;
78453;SDS011;67750;55.832;49.124;2024-03-08T07:29:57;6.87;;;3.22;;
78453;SDS011;67750;55.832;49.124;2024-03-08T07:32:27;7.42;;;3.83;;
78453;SDS011;67750;55.832;49.124;2024-03-08T07:34:58;6.33;;;3.27;;
78453;SDS011;67750;55.832;49.124;2024-03-08T07:37:29;7.67;;;3.45;;
78453;SDS011;67750;55.832;49.124;2024-03-08T07:39:59;7.75;;;2.90;;
78453;SDS011;67750;55.832;49.124;2024-03-08T07:42:29;6.47;;;2.90;;
78453;SDS011;67750;55.832;49.124;2024-03-08T07:44:58;7.42;;;3.58;;
78453;SDS011;67750;55.832;49.124;2024-03-08T07:47:28;7.17;;;3.35;;
78453;SDS011;67750;55.832;49.124;2024-03-08T07:49:59;6.95;;;3.33;;
78453;SDS011;67750;55.832;49.124;2024-03-08T07:52:28;7.05;;;3.42;;
78453;SDS011;67750;55.832;49.124;2024-03-08T07:54:58;6.60;;;3.45;;
78453;SDS011;67750;55.832;49.124;2024-03-08T07:57:28;7.95;;;4.00;;
78453;SDS011;67750;55.832;49.124;2024-03-08T07:59:57;8.58;;;3.65;;
78453;SDS011;67750;55.832;49.124;2024-03-08T08:02:27;7.83;;;3.77;;
78453;SDS011;67750;55.832;49.124;2024-03-08T08:04:57;8.00;;;4.12;;
78453;SDS011;67750;55.832;49.124;2024-03-08T08:07:27;9.85;;;3.65;;
78453;SDS011;67750;55.832;49.124;2024-03-08T08:09:57;7.35;;;3.72;;
78453;SDS011;67750;55.832;49.124;2024-03-08T08:12:26;6.28;;;3.67;;
78453;SDS011;67750;55.832;49.124;2024-03-08T08:14:56;9.68;;;4.25;;
78453;SDS011;67750;55.832;49.124;2024-03-08T08:17:25;12.85;;;4.42;;
78453;SDS011;67750;55.832;49.124;2024-03-08T08:19:55;8.00;;;4.03;;
78453;SDS011;67750;55.832;49.124;2024-03-08T08:22:25;8.78;;;4.12;;
78453;SDS011;67750;55.832;49.124;2024-03-08T08:24:54;8.15;;;4.12;;
78453;SDS011;67750;55.832;49.124;2024-03-08T08:27:24;9.75;;;3.65;;
78453;SDS011;67750;55.832;49.124;2024-03-08T08:29:53;8.55;;;4.03;;
78453;SDS011;67750;55.832;49.124;2024-03-08T08:32:23;16.77;;;6.75;;
78453;SDS011;67750;55.832;49.124;2024-03-08T08:34:53;7.22;;;3.20;;
78453;SDS011;67750;55.832;49.124;2024-03-08T08:37:24;9.88;;;3.40;;
78453;SDS011;67750;55.832;49.124;2024-03-08T08:39:55;8.98;;;3.87;;
78453;SDS011;67750;55.832;49.124;2024-03-08T08:42:25;10.15;;;3.72;;
78453;SDS011;67750;55.832;49.124;2024-03-08T08:44:55;9.53;;;3.55;;
78453;SDS011;67750;55.832;49.124;2024-03-08T08:47:25;9.23;;;4.42;;
78453;SDS011;67750;55.832;49.124;2024-03-08T08:49:55;9.50;;;3.77;;
78453;SDS011;67750;55.832;49.124;2024-03-08T08:52:24;8.90;;;3.83;;
78453;SDS011;67750;55.832;49.124;2024-03-08T08:54:56;8.65;;;3.95;;
78453;SDS011;67750;55.832;49.124;2024-03-08T08:57:25;6.72;;;3.35;;
78453;SDS011;67750;55.832;49.124;2024-03-08T08:59:55;4.37;;;2.87;;
78453;SDS011;67750;55.832;49.124;2024-03-08T09:02:24;8.38;;;4.45;;
78453;SDS011;67750;55.832;49.124;2024-03-08T09:04:54;6.97;;;3.80;;
78453;SDS011;67750;55.832;49.124;2024-03-08T09:07:23;8.95;;;3.77;;
78453;SDS011;67750;55.832;49.124;2024-03-08T09:09:54;8.13;;;4.20;;
78453;SDS011;67750;55.832;49.124;2024-03-08T09:12:25;10.88;;;3.85;;
78453;SDS011;67750;55.832;49.124;2024-03-08T09:14:55;9.88;;;4.17;;
78453;SDS011;67750;55.832;49.124;2024-03-08T09:17:24;6.40;;;4.10;;
78453;SDS011;67750;55.832;49.124;2024-03-08T09:19:54;11.10;;;4.37;;
78453;SDS011;67750;55.832;49.124;2024-03-08T09:22:24;8.10;;;4.80;;
78453;SDS011;67750;55.832;49.124;2024-03-08T09:24:54;7.15;;;3.87;;
78453;SDS011;67750;55.832;49.124;2024-03-08T09:27:24;6.60;;;3.37;;
78453;SDS011;67750;55.832;49.124;2024-03-08T09:29:54;10.78;;;4.20;;
78453;SDS011;67750;55.832;49.124;2024-03-08T09:32:23;9.05;;;5.08;;
78453;SDS011;67750;55.832;49.124;2024-03-08T09:34:53;9.70;;;4.37;;
78453;SDS011;67750;55.832;49.124;2024-03-08T09:37:23;10.15;;;4.35;;
78453;SDS011;67750;55.832;49.124;2024-03-08T09:39:52;8.15;;;3.90;;
78453;SDS011;67750;55.832;49.124;2024-03-08T09:42:22;6.72;;;4.15;;
78453;SDS011;67750;55.832;49.124;2024-03-08T09:44:52;9.53;;;3.98;;
78453;SDS011;67750;55.832;49.124;2024-03-08T09:47:22;11.25;;;4.22;;
78453;SDS011;67750;55.832;49.124;2024-03-08T09:49:54;7.70;;;4.37;;
78453;SDS011;67750;55.832;49.124;2024-03-08T09:52:23;11.05;;;4.12;;
78453;SDS011;67750;55.832;49.124;2024-03-08T09:54:54;7.67;;;4.22;;
78453;SDS011;67750;55.832;49.124;2024-03-08T09:57:24;8.15;;;3.52;;
78453;SDS011;67750;55.832;49.124;2024-03-08T10:02:24;8.58;;;4.30;;
78453;SDS011;67750;55.832;49.124;2024-03-08T10:04:55;7.87;;;4.53;;
78453;SDS011;67750;55.832;49.124;2024-03-08T10:07:28;10.43;;;4.35;;
78453;SDS011;67750;55.832;49.124;2024-03-08T10:09:58;8.75;;;4.55;;
78453;SDS011;67750;55.832;49.124;2024-03-08T10:12:29;10.45;;;4.72;;
78453;SDS011;67750;55.832;49.124;2024-03-08T10:15:01;14.23;;;5.50;;
78453;SDS011;67750;55.832;49.124;2024-03-08T10:17:32;9.73;;;5.28;;
78453;SDS011;67750;55.832;49.124;2024-03-08T10:20:38;13.22;;;5.70;;
78453;SDS011;67750;55.832;49.124;2024-03-08T10:25:11;10.85;;;4.72;;
78453;SDS011;67750;55.832;49.124;2024-03-08T10:27:44;7.75;;;3.20;;
78453;SDS011;67750;55.832;49.124;2024-03-08T10:30:14;9.83;;;4.28;;
78453;SDS011;67750;55.832;49.124;2024-03-08T10:32:45;8.65;;;4.22;;
78453;SDS011;67750;55.832;49.124;2024-03-08T10:35:16;8.23;;;4.80;;
78453;SDS011;67750;55.832;49.124;2024-03-08T10:37:48;7.10;;;3.90;;
78453;SDS011;67750;55.832;49.124;2024-03-08T10:40:38;6.97;;;4.03;;
78453;SDS011;67750;55.832;49.124;2024-03-08T10:43:13;9.43;;;4.75;;
78453;SDS011;67750;55.832;49.124;2024-03-08T10:45:42;8.48;;;4.33;;
78453;SDS011;67750;55.832;49.124;2024-03-08T10:51:05;10.60;;;4.08;;
78453;SDS011;67750;55.832;49.124;2024-03-08T10:53:37;8.75;;;4.67;;
78453;SDS011;67750;55.832;49.124;2024-03-08T10:56:08;9.35;;;4.30;;
78453;SDS011;67750;55.832;49.124;2024-03-08T10:58:39;8.58;;;4.22;;
78453;SDS011;67750;55.832;49.124;2024-03-08T11:01:13;8.78;;;3.45;;
78453;SDS011;67750;55.832;49.124;2024-03-08T11:03:44;8.10;;;3.67;;
78453;SDS011;67750;55.832;49.124;2024-03-08T11:20:30;8.88;;;4.28;;
78453;SDS011;67750;55.832;49.124;2024-03-08T11:23:03;8.88;;;4.40;;
78453;SDS011;67750;55.832;49.124;2024-03-08T11:25:35;13.43;;;5.40;;
78453;SDS011;67750;55.832;49.124;2024-03-08T11:33:48;8.03;;;4.87;;
78453;SDS011;67750;55.832;49.124;2024-03-08T11:39:09;7.67;;;4.40;;
78453;SDS011;67750;55.832;49.124;2024-03-08T11:41:40;9.68;;;4.62;;
78453;SDS011;67750;55.832;49.124;2024-03-08T11:44:11;9.85;;;4.87;;
78453;SDS011;67750;55.832;49.124;2024-03-08T11:46:43;9.60;;;4.95;;
78453;SDS011;67750;55.832;49.124;2024-03-08T11:49:14;9.78;;;5.05;;
78453;SDS011;67750;55.832;49.124;2024-03-08T11:51:44;14.23;;;5.42;;
78453;SDS011;67750;55.832;49.124;2024-03-08T11:54:14;9.25;;;4.90;;
78453;SDS011;67750;55.832;49.124;2024-03-08T11:56:44;9.00;;;4.97;;
78453;SDS011;67750;55.832;49.124;2024-03-08T11:59:14;8.30;;;4.40;;
78453;SDS011;67750;55.832;49.124;2024-03-08T12:01:56;11.10;;;5.67;;
78453;SDS011;67750;55.832;49.124;2024-03-08T12:04:15;9.15;;;4.60;;
78453;SDS011;67750;55.832;49.124;2024-03-08T12:06:45;8.28;;;4.50;;
78453;SDS011;67750;55.832;49.124;2024-03-08T12:09:15;9.68;;;4.62;;
78453;SDS011;67750;55.832;49.124;2024-03-08T12:14:35;11.65;;;5.20;;
78453;SDS011;67750;55.832;49.124;2024-03-08T12:17:04;11.60;;;5.58;;
78453;SDS011;67750;55.832;49.124;2024-03-08T12:19:34;12.07;;;5.87;;
78453;SDS011;67750;55.832;49.124;2024-03-08T12:27:44;9.45;;;5.10;;
78453;SDS011;67750;55.832;49.124;2024-03-08T12:33:04;11.80;;;5.75;;
78453;SDS011;67750;55.832;49.124;2024-03-08T12:35:35;19.07;;;5.67;;
78453;SDS011;67750;55.832;49.124;2024-03-08T12:38:04;18.07;;;7.17;;
78453;SDS011;67750;55.832;49.124;2024-03-08T12:40:35;11.15;;;5.42;;
78453;SDS011;67750;55.832;49.124;2024-03-08T12:43:06;9.68;;;5.30;;
78453;SDS011;67750;55.832;49.124;2024-03-08T12:45:36;11.88;;;5.90;;
78453;SDS011;67750;55.832;49.124;2024-03-08T12:48:11;10.82;;;5.20;;
78453;SDS011;67750;55.832;49.124;2024-03-08T12:50:37;14.38;;;6.62;;
78453;SDS011;67750;55.832;49.124;2024-03-08T12:53:07;13.35;;;6.72;;
78453;SDS011;67750;55.832;49.124;2024-03-08T12:55:36;14.33;;;6.53;;
78453;SDS011;67750;55.832;49.124;2024-03-08T12:58:07;11.90;;;6.08;;
78453;SDS011;67750;55.832;49.124;2024-03-08T13:00:36;12.05;;;5.83;;
78453;SDS011;67750;55.832;49.124;2024-03-08T13:03:07;12.20;;;6.00;;
78453;SDS011;67750;55.832;49.124;2024-03-08T13:05:37;13.48;;;6.10;;
78453;SDS011;67750;55.832;49.124;2024-03-08T13:08:10;13.68;;;6.65;;
78453;SDS011;67750;55.832;49.124;2024-03-08T13:10:40;13.50;;;7.35;;
78453;SDS011;67750;55.832;49.124;2024-03-08T13:13:11;10.68;;;6.10;;
78453;SDS011;67750;55.832;49.124;2024-03-08T13:15:43;9.63;;;5.92;;
78453;SDS011;67750;55.832;49.124;2024-03-08T13:18:12;11.85;;;5.55;;
78453;SDS011;67750;55.832;49.124;2024-03-08T13:20:43;10.95;;;6.10;;
78453;SDS011;67750;55.832;49.124;2024-03-08T13:23:14;9.70;;;5.78;;
78453;SDS011;67750;55.832;49.124;2024-03-08T13:25:44;11.60;;;6.47;;
78453;SDS011;67750;55.832;49.124;2024-03-08T13:28:33;12.05;;;5.42;;
78453;SDS011;67750;55.832;49.124;2024-03-08T13:31:05;12.95;;;6.03;;
78453;SDS011;67750;55.832;49.124;2024-03-08T13:33:36;9.85;;;5.50;;
78453;SDS011;67750;55.832;49.124;2024-03-08T13:36:06;11.15;;;5.50;;
78453;SDS011;67750;55.832;49.124;2024-03-08T13:38:37;12.10;;;6.90;;
78453;SDS011;67750;55.832;49.124;2024-03-08T13:41:09;13.58;;;5.80;;
78453;SDS011;67750;55.832;49.124;2024-03-08T13:43:39;10.70;;;5.47;;
78453;SDS011;67750;55.832;49.124;2024-03-08T13:46:08;11.20;;;5.78;;
78453;SDS011;67750;55.832;49.124;2024-03-08T13:48:38;12.78;;;7.45;;
78453;SDS011;67750;55.832;49.124;2024-03-08T13:51:08;12.37;;;6.62;;
78453;SDS011;67750;55.832;49.124;2024-03-08T13:53:39;15.70;;;8.45;;
78453;SDS011;67750;55.832;49.124;2024-03-08T13:56:09;17.95;;;7.25;;
78453;SDS011;67750;55.832;49.124;2024-03-08T13:58:38;13.28;;;6.50;;
78453;SDS011;67750;55.832;49.124;2024-03-08T14:01:08;13.78;;;6.75;;
78453;SDS011;67750;55.832;49.124;2024-03-08T14:03:38;13.20;;;6.85;;
78453;SDS011;67750;55.832;49.124;2024-03-08T14:06:09;18.23;;;7.33;;
78453;SDS011;67750;55.832;49.124;2024-03-08T14:08:39;12.60;;;7.53;;
78453;SDS011;67750;55.832;49.124;2024-03-08T14:11:08;12.58;;;6.37;;
78453;SDS011;67750;55.832;49.124;2024-03-08T14:16:29;14.60;;;7.05;;
78453;SDS011;67750;55.832;49.124;2024-03-08T14:18:58;14.75;;;6.47;;
78453;SDS011;67750;55.832;49.124;2024-03-08T14:21:29;15.28;;;7.75;;
78453;SDS011;67750;55.832;49.124;2024-03-08T14:23:59;16.97;;;7.90;;
78453;SDS011;67750;55.832;49.124;2024-03-08T14:26:28;14.38;;;7.30;;
78453;SDS011;67750;55.832;49.124;2024-03-08T14:28:58;12.55;;;6.70;;
78453;SDS011;67750;55.832;49.124;2024-03-08T14:31:28;13.75;;;6.83;;
78453;SDS011;67750;55.832;49.124;2024-03-08T14:33:57;15.58;;;7.08;;
78453;SDS011;67750;55.832;49.124;2024-03-08T14:36:27;15.20;;;6.83;;
78453;SDS011;67750;55.832;49.124;2024-03-08T14:38:56;17.35;;;7.45;;
78453;SDS011;67750;55.832;49.124;2024-03-08T14:41:26;16.95;;;7.65;;
78453;SDS011;67750;55.832;49.124;2024-03-08T14:43:56;13.93;;;7.33;;
78453;SDS011;67750;55.832;49.124;2024-03-08T14:46:26;14.63;;;6.97;;
78453;SDS011;67750;55.832;49.124;2024-03-08T14:48:56;12.73;;;7.60;;
78453;SDS011;67750;55.832;49.124;2024-03-08T14:51:26;13.70;;;6.83;;
78453;SDS011;67750;55.832;49.124;2024-03-08T14:53:55;15.30;;;7.70;;
78453;SDS011;67750;55.832;49.124;2024-03-08T14:56:25;15.58;;;7.65;;
78453;SDS011;67750;55.832;49.124;2024-03-08T14:58:54;15.30;;;7.22;;
78453;SDS011;67750;55.832;49.124;2024-03-08T15:01:25;13.38;;;6.22;;
78453;SDS011;67750;55.832;49.124;2024-03-08T15:03:57;17.48;;;7.80;;
78453;SDS011;67750;55.832;49.124;2024-03-08T15:06:46;17.50;;;6.10;;
78453;SDS011;67750;55.832;49.124;2024-03-08T15:09:15;13.38;;;6.92;;
78453;SDS011;67750;55.832;49.124;2024-03-08T15:11:47;15.78;;;7.78;;
78453;SDS011;67750;55.832;49.124;2024-03-08T15:17:25;16.52;;;7.95;;
78453;SDS011;67750;55.832;49.124;2024-03-08T15:19:55;13.55;;;7.28;;
78453;SDS011;67750;55.832;49.124;2024-03-08T15:22:25;14.90;;;7.55;;
78453;SDS011;67750;55.832;49.124;2024-03-08T15:24:55;14.53;;;7.12;;
78453;SDS011;67750;55.832;49.124;2024-03-08T15:27:26;13.38;;;7.42;;
78453;SDS011;67750;55.832;49.124;2024-03-08T15:29:56;13.05;;;6.97;;
78453;SDS011;67750;55.832;49.124;2024-03-08T15:32:25;12.65;;;6.05;;
78453;SDS011;67750;55.832;49.124;2024-03-08T15:34:56;11.90;;;6.47;;
78453;SDS011;67750;55.832;49.124;2024-03-08T15:37:26;13.00;;;6.45;;
78453;SDS011;67750;55.832;49.124;2024-03-08T15:39:57;12.20;;;6.87;;
78453;SDS011;67750;55.832;49.124;2024-03-08T15:42:26;12.90;;;5.90;;
78453;SDS011;67750;55.832;49.124;2024-03-08T15:44:56;13.00;;;6.60;;